Time;durP1;ratioP1;P1;durP2;ratioP2;P2;SDS_P1;SDS_P2;PMS_P1;PMS_P2;Temp;Humidity;BMP_temperature;BMP_pressure;BME280_temperature;BME280_humidity;BME280_pressure;Samples;Min_cycle;Max_cycle;Signal;HPM_P1;HPM_P2
2023/09/21 00:02:00;;;;;;;4.88;1.48;;;20.50;69.70;;;;;;9159911;19;20014;-68
2023/09/21 00:05:06;;;;;;;6.10;1.60;;;20.50;69.70;;;;;;9162446;19;20496;-67
2023/09/21 00:08:13;;;;;;;5.15;1.50;;;20.60;69.70;;;;;;9162692;19;20028;-66
2023/09/21 00:11:24;;;;;;;6.70;2.47;;;20.60;69.70;;;;;;9160946;19;20026;-67
2023/09/21 00:14:32;;;;;;;6.40;1.88;;;20.60;69.60;;;;;;9166222;19;20010;-67
2023/09/21 00:17:39;;;;;;;6.70;2.45;;;20.60;69.70;;;;;;9169746;19;20057;-67
2023/09/21 00:20:51;;;;;;;4.47;1.60;;;20.60;69.70;;;;;;9169903;19;20491;-67
2023/09/21 00:24:00;;;;;;;5.85;1.60;;;20.60;69.60;;;;;;9168726;19;20117;-67
2023/09/21 00:27:10;;;;;;;3.67;2.03;;;20.60;69.70;;;;;;9169663;19;20010;-67
2023/09/21 00:30:16;;;;;;;7.18;1.60;;;20.60;69.60;;;;;;9171899;19;20068;-67
2023/09/21 00:33:23;;;;;;;4.18;1.70;;;20.50;69.50;;;;;;9170215;19;20018;-69
2023/09/21 00:36:30;;;;;;;4.03;2.25;;;20.50;69.50;;;;;;9171560;19;20014;-67
2023/09/21 00:39:38;;;;;;;5.40;1.25;;;20.50;69.50;;;;;;9170588;19;20019;-68
2023/09/21 00:42:49;;;;;;;5.80;1.70;;;20.50;69.50;;;;;;9165929;19;20014;-68
2023/09/21 00:45:58;;;;;;;4.32;1.60;;;20.50;69.50;;;;;;9169877;19;20038;-67
2023/09/21 00:49:04;;;;;;;2.58;1.60;;;20.40;69.60;;;;;;9168094;19;20101;-66
2023/09/21 00:52:13;;;;;;;4.65;1.88;;;20.40;69.60;;;;;;9170427;19;20480;-67
2023/09/21 00:55:23;;;;;;;5.53;1.92;;;20.40;69.50;;;;;;9170369;19;20010;-67
2023/09/21 00:58:34;;;;;;;4.93;1.88;;;20.40;70.10;;;;;;9170298;19;20019;-66
2023/09/21 01:01:39;;;;;;;1.52;1.10;;;20.40;69.50;;;;;;9168962;19;20333;-68
2023/09/21 01:04:47;;;;;;;5.47;1.95;;;20.40;69.50;;;;;;9168330;19;20491;-67
2023/09/21 01:07:55;;;;;;;4.28;1.58;;;20.30;69.50;;;;;;9169522;19;20011;-66
2023/09/21 01:11:08;;;;;;;4.68;2.17;;;20.30;69.40;;;;;;9170464;19;20018;-67
2023/09/21 01:14:16;;;;;;;3.70;1.58;;;20.30;69.50;;;;;;9168802;19;20022;-67
2023/09/21 01:17:25;;;;;;;2.60;1.48;;;20.30;69.50;;;;;;9165055;19;20022;-68
2023/09/21 01:20:32;;;;;;;1.55;1.33;;;20.30;69.40;;;;;;9167599;19;20033;-67
2023/09/21 01:23:45;;;;;;;3.65;1.52;;;20.30;69.40;;;;;;9167358;19;20986;-66
2023/09/21 01:26:51;;;;;;;3.42;1.58;;;20.30;69.40;;;;;;9167924;19;20052;-67
2023/09/21 01:29:59;;;;;;;4.25;1.73;;;20.30;69.50;;;;;;9168432;19;20023;-67
2023/09/21 01:33:07;;;;;;;5.57;2.17;;;20.30;69.40;;;;;;9168556;19;20011;-67
2023/09/21 01:36:18;;;;;;;5.55;1.60;;;20.30;69.40;;;;;;9167918;19;20484;-67
2023/09/21 01:39:27;;;;;;;5.93;1.65;;;20.30;69.40;;;;;;9166014;19;20984;-65
2023/09/21 01:42:36;;;;;;;3.17;1.42;;;20.30;69.40;;;;;;9165272;19;20029;-65
2023/09/21 01:45:42;;;;;;;3.13;1.40;;;20.30;69.40;;;;;;9168566;19;20496;-67
2023/09/21 01:48:50;;;;;;;4.43;1.60;;;20.20;69.40;;;;;;9168267;19;20022;-67
2023/09/21 01:51:55;;;;;;;3.40;1.73;;;20.30;69.40;;;;;;9167880;19;20021;-66
2023/09/21 01:55:10;;;;;;;3.80;1.85;;;20.20;69.30;;;;;;9167535;19;20042;-66
2023/09/21 01:58:17;;;;;;;5.32;1.73;;;20.30;69.40;;;;;;9165590;19;20014;-66
2023/09/21 02:01:24;;;;;;;3.33;1.70;;;20.30;69.40;;;;;;9165915;19;20014;-68
2023/09/21 02:04:30;;;;;;;4.57;1.67;;;20.20;69.40;;;;;;9166300;19;20010;-68
2023/09/21 02:07:37;;;;;;;5.10;1.70;;;20.30;69.40;;;;;;9168578;19;20022;-67
2023/09/21 02:10:49;;;;;;;3.67;1.77;;;20.10;69.30;;;;;;9165518;19;20856;-67
2023/09/21 02:13:59;;;;;;;7.93;2.00;;;20.20;69.30;;;;;;9167295;19;20006;-68
2023/09/21 02:17:04;;;;;;;4.28;1.67;;;20.30;69.40;;;;;;9161523;19;20018;-68
2023/09/21 02:20:16;;;;;;;3.33;1.40;;;20.20;69.30;;;;;;9164846;19;20038;-66
2023/09/21 02:23:21;;;;;;;5.05;1.90;;;20.20;69.30;;;;;;9164077;19;20472;-68
2023/09/21 02:26:32;;;;;;;4.30;1.92;;;20.20;69.30;;;;;;9162118;19;20369;-68
2023/09/21 02:29:40;;;;;;;4.35;1.80;;;20.20;69.30;;;;;;9164567;19;20011;-68
2023/09/21 02:32:48;;;;;;;3.72;1.58;;;20.20;69.30;;;;;;9166214;19;20018;-67
2023/09/21 02:35:54;;;;;;;3.63;1.95;;;20.20;69.30;;;;;;9162515;19;20022;-66
2023/09/21 02:39:02;;;;;;;4.35;1.77;;;20.20;69.30;;;;;;9166060;19;20504;-66
2023/09/21 02:42:10;;;;;;;5.00;1.33;;;20.10;69.20;;;;;;9162451;19;20014;-68
2023/09/21 02:45:20;;;;;;;5.53;2.08;;;20.10;69.20;;;;;;9163229;19;20007;-64
2023/09/21 02:48:25;;;;;;;2.95;1.50;;;20.10;69.20;;;;;;9164198;19;20021;-66
2023/09/21 02:51:33;;;;;;;2.25;1.40;;;20.20;69.20;;;;;;9163642;19;20022;-66
2023/09/21 02:54:39;;;;;;;5.57;1.38;;;20.10;69.20;;;;;;9166571;19;20574;-66
2023/09/21 02:57:55;;;;;;;9.30;2.03;;;20.20;69.20;;;;;;9165228;19;20026;-67
2023/09/21 03:01:01;;;;;;;;;;;20.10;69.10;;;;;;9165172;19;20534;-67
2023/09/21 03:04:12;;;;;;;4.20;1.50;;;20.10;69.20;;;;;;9163218;19;19934;-67
2023/09/21 03:07:18;;;;;;;3.42;1.80;;;20.10;69.20;;;;;;9165278;19;20492;-66
2023/09/21 03:10:26;;;;;;;3.60;1.67;;;20.10;69.20;;;;;;9164624;19;20499;-67
2023/09/21 03:13:34;;;;;;;5.25;1.88;;;20.10;69.20;;;;;;9162180;19;20022;-67
2023/09/21 03:16:44;;;;;;;3.90;1.67;;;20.10;69.20;;;;;;9160148;19;20112;-67
2023/09/21 03:19:49;;;;;;;4.97;1.70;;;20.10;69.20;;;;;;9162005;19;20014;-69
2023/09/21 03:22:57;;;;;;;4.68;1.60;;;20.10;69.20;;;;;;9161902;19;20022;-65
2023/09/21 03:26:03;;;;;;;3.72;1.90;;;20.10;69.20;;;;;;9163220;19;20056;-69
2023/09/21 03:29:12;;;;;;;3.50;1.50;;;20.10;69.20;;;;;;9164505;19;20030;-65
2023/09/21 03:32:18;;;;;;;4.43;1.77;;;20.10;69.20;;;;;;9163766;19;20022;-67
2023/09/21 03:35:26;;;;;;;3.05;1.40;;;20.10;69.20;;;;;;9162023;19;20038;-67
2023/09/21 03:38:33;;;;;;;6.70;1.90;;;20.10;69.20;;;;;;9160575;19;20417;-66
2023/09/21 03:41:42;;;;;;;5.53;1.42;;;20.00;69.10;;;;;;9160912;19;20022;-67
2023/09/21 03:44:50;;;;;;;4.15;1.83;;;20.00;69.10;;;;;;9162575;19;20078;-66
2023/09/21 03:47:59;;;;;;;3.08;1.73;;;20.10;69.30;;;;;;9168751;19;20034;-66
2023/09/21 03:51:06;;;;;;;4.35;1.50;;;20.00;69.20;;;;;;9171462;19;20060;-68
2023/09/21 03:54:16;;;;;;;5.03;1.90;;;20.00;69.20;;;;;;9170802;19;20022;-67
2023/09/21 03:57:21;;;;;;;3.25;1.65;;;20.10;70.00;;;;;;9172471;19;20022;-65
2023/09/21 04:00:36;;;;;;;5.30;1.88;;;20.10;70.70;;;;;;9171774;19;20029;-65
2023/09/21 04:03:43;;;;;;;;;;;20.10;70.00;;;;;;9169531;19;20026;-66
2023/09/21 04:06:56;;;;;;;4.07;1.63;;;20.10;70.10;;;;;;9172459;19;19918;-67
2023/09/21 04:10:01;;;;;;;4.53;1.60;;;20.10;70.10;;;;;;9169736;19;20007;-66
2023/09/21 04:13:09;;;;;;;8.88;1.52;;;20.10;69.70;;;;;;9171887;19;20018;-67
2023/09/21 04:16:17;;;;;;;2.50;1.67;;;20.00;70.10;;;;;;9164344;19;20018;-68
2023/09/21 04:19:24;;;;;;;6.72;1.85;;;20.10;70.70;;;;;;9168010;19;20022;-67
2023/09/21 04:22:31;;;;;;;2.97;1.92;;;20.00;70.20;;;;;;9170594;19;20483;-65
2023/09/21 04:25:39;;;;;;;7.28;1.77;;;20.00;70.70;;;;;;9170086;19;20006;-67
2023/09/21 04:28:45;;;;;;;3.58;1.67;;;20.10;71.20;;;;;;9169070;19;20668;-66
2023/09/21 04:31:55;;;;;;;5.05;1.80;;;20.00;69.40;;;;;;9169247;19;20354;-68
2023/09/21 04:35:05;;;;;;;4.60;1.63;;;20.00;69.20;;;;;;9169439;19;20341;-65
2023/09/21 04:38:13;;;;;;;2.80;1.45;;;19.90;69.00;;;;;;9169005;19;20025;-66
2023/09/21 04:41:20;;;;;;;3.33;1.90;;;19.90;69.00;;;;;;9169602;19;20018;-68
2023/09/21 04:44:30;;;;;;;4.15;1.90;;;19.90;69.00;;;;;;9166079;19;20022;-68
2023/09/21 04:47:39;;;;;;;3.40;1.90;;;19.90;69.20;;;;;;9169364;19;20068;-68
2023/09/21 04:50:49;;;;;;;3.05;1.40;;;19.90;69.10;;;;;;9171635;19;20030;-67
2023/09/21 04:53:55;;;;;;;1.92;1.13;;;19.90;69.20;;;;;;9168251;19;20484;-67
2023/09/21 04:57:02;;;;;;;3.55;1.42;;;19.80;69.00;;;;;;9169013;19;20018;-67
2023/09/21 05:00:13;;;;;;;5.93;1.50;;;19.80;69.00;;;;;;9166998;19;20006;-68
2023/09/21 05:03:25;;;;;;;1.58;1.10;;;19.80;69.10;;;;;;9167098;19;20025;-67
2023/09/21 05:06:31;;;;;;;4.78;1.65;;;19.80;69.10;;;;;;9170036;19;20011;-66
2023/09/21 05:09:38;;;;;;;5.10;1.60;;;19.80;69.10;;;;;;9168279;19;20390;-68
2023/09/21 05:12:44;;;;;;;3.55;1.58;;;19.80;69.20;;;;;;9169351;19;20035;-66
2023/09/21 05:15:53;;;;;;;5.18;2.15;;;19.70;69.10;;;;;;9162578;19;20015;-67
2023/09/21 05:19:01;;;;;;;5.13;1.77;;;19.70;69.10;;;;;;9167948;19;20024;-67
2023/09/21 05:22:09;;;;;;;4.50;1.67;;;19.70;69.10;;;;;;9169006;19;20479;-67
2023/09/21 05:25:14;;;;;;;4.30;2.15;;;19.70;69.10;;;;;;9164435;19;20042;-64
2023/09/21 05:28:22;;;;;;;5.07;1.85;;;19.70;69.70;;;;;;9166038;19;20018;-68
2023/09/21 05:31:27;;;;;;;6.20;2.15;;;19.70;69.10;;;;;;9166609;19;20014;-67
2023/09/21 05:34:37;;;;;;;3.45;1.98;;;19.70;69.20;;;;;;9168263;19;20769;-66
2023/09/21 05:37:42;;;;;;;3.88;1.80;;;19.70;69.30;;;;;;9168067;19;20064;-67
2023/09/21 05:40:50;;;;;;;9.52;2.25;;;19.70;70.00;;;;;;9166951;19;20535;-66
2023/09/21 05:43:55;;;;;;;3.05;1.73;;;19.70;69.30;;;;;;9166843;19;20383;-67
2023/09/21 05:47:02;;;;;;;3.85;1.58;;;19.70;69.40;;;;;;9166048;19;20010;-66
2023/09/21 05:50:13;;;;;;;2.70;1.80;;;19.60;69.30;;;;;;9166297;19;20010;-65
2023/09/21 05:53:22;;;;;;;8.27;1.80;;;19.70;69.30;;;;;;9168582;19;20096;-68
2023/09/21 05:56:27;;;;;;;2.53;1.58;;;19.60;69.40;;;;;;9164916;19;20078;-65
2023/09/21 05:59:36;;;;;;;6.82;1.65;;;19.60;69.40;;;;;;9163950;19;20120;-69
2023/09/21 06:02:41;;;;;;;9.32;3.13;;;19.60;69.50;;;;;;9163089;19;20029;-67
2023/09/21 06:05:52;;;;;;;3.38;1.70;;;19.60;69.50;;;;;;9160063;19;20282;-64
2023/09/21 06:08:58;;;;;;;8.05;2.00;;;19.60;69.50;;;;;;9164135;19;20020;-65
2023/09/21 06:12:07;;;;;;;2.80;1.55;;;19.60;69.50;;;;;;9162864;19;20018;-65
2023/09/21 06:15:13;;;;;;;8.02;1.80;;;19.70;70.30;;;;;;9161021;19;20019;-65
2023/09/21 06:18:22;;;;;;;9.75;1.92;;;19.70;69.80;;;;;;9163214;19;20011;-67
2023/09/21 06:21:31;;;;;;;7.63;2.13;;;19.80;70.10;;;;;;9162194;19;20025;-69
2023/09/21 06:24:39;;;;;;;6.32;1.90;;;19.80;69.80;;;;;;9159625;19;20025;-68
2023/09/21 06:27:46;;;;;;;5.07;1.80;;;19.80;70.00;;;;;;9165565;19;20018;-66
2023/09/21 06:30:54;;;;;;;4.00;1.58;;;19.80;70.00;;;;;;9164655;19;20022;-66
2023/09/21 06:34:01;;;;;;;4.03;1.67;;;19.90;70.10;;;;;;9161211;19;20030;-67
2023/09/21 06:37:11;;;;;;;6.50;1.90;;;20.00;70.00;;;;;;9163780;19;20015;-66
2023/09/21 06:40:16;;;;;;;4.43;1.95;;;20.00;70.10;;;;;;9163229;19;20014;-70
2023/09/21 06:43:27;;;;;;;4.45;1.70;;;20.10;70.20;;;;;;9162357;19;20018;-67
2023/09/21 06:46:32;;;;;;;8.48;1.80;;;20.10;70.10;;;;;;9162719;19;20015;-66
2023/09/21 06:49:40;;;;;;;3.70;1.90;;;20.40;70.30;;;;;;9162772;19;20048;-67
2023/09/21 06:52:48;;;;;;;7.05;2.25;;;20.30;70.10;;;;;;9160449;19;20056;-64
2023/09/21 06:55:56;;;;;;;4.45;1.77;;;20.40;70.00;;;;;;9161898;19;20026;-67
2023/09/21 06:59:01;;;;;;;7.95;2.30;;;20.40;70.00;;;;;;9161195;19;20053;-70
2023/09/21 07:02:09;;;;;;;3.65;2.00;;;20.50;69.90;;;;;;9162180;19;20003;-69
2023/09/21 07:05:33;;;;;;;5.40;1.70;;;20.60;69.80;;;;;;9162556;19;20022;-69
2023/09/21 07:08:43;;;;;;;3.20;1.90;;;20.60;69.80;;;;;;9160042;19;20014;-66
2023/09/21 07:11:49;;;;;;;8.38;2.20;;;20.60;69.70;;;;;;9157681;19;20115;-67
2023/09/21 07:14:58;;;;;;;9.18;2.00;;;20.70;69.70;;;;;;9160662;19;20042;-67
2023/09/21 07:18:05;;;;;;;6.07;2.20;;;20.70;69.60;;;;;;9165075;19;20029;-67
2023/09/21 07:21:13;;;;;;;8.32;4.03;;;20.80;69.70;;;;;;9162066;19;20018;-68
2023/09/21 07:24:21;;;;;;;3.55;1.95;;;20.90;69.60;;;;;;9156347;19;20424;-68
2023/09/21 07:27:29;;;;;;;5.13;1.80;;;20.90;69.60;;;;;;9162771;19;20022;-67
2023/09/21 07:30:34;;;;;;;3.50;1.88;;;20.90;69.50;;;;;;9160280;19;20358;-66
2023/09/21 07:33:41;;;;;;;4.90;2.13;;;21.00;69.60;;;;;;9161489;19;20015;-68
2023/09/21 07:36:47;;;;;;;5.97;1.70;;;21.00;69.60;;;;;;9161910;19;20015;-68
2023/09/21 07:39:57;;;;;;;4.88;1.95;;;21.10;69.50;;;;;;9160980;19;20026;-67
2023/09/21 07:43:03;;;;;;;4.13;2.10;;;21.10;69.50;;;;;;9161657;19;20395;-67
2023/09/21 07:46:10;;;;;;;3.55;1.88;;;21.20;69.50;;;;;;9158536;19;20018;-67
2023/09/21 07:49:16;;;;;;;5.05;1.70;;;21.20;69.50;;;;;;9162225;19;20022;-68
2023/09/21 07:52:23;;;;;;;5.93;1.92;;;21.20;69.40;;;;;;9164173;19;20014;-67
2023/09/21 07:55:32;;;;;;;5.88;2.08;;;21.40;69.50;;;;;;9163574;19;20044;-65
2023/09/21 07:58:44;;;;;;;8.80;2.13;;;21.40;69.40;;;;;;9159940;19;20020;-66
2023/09/21 08:01:53;;;;;;;4.53;2.38;;;21.40;69.30;;;;;;9159413;19;20045;-68
2023/09/21 08:05:02;;;;;;;7.22;2.38;;;21.40;69.20;;;;;;9159934;19;20025;-65
2023/09/21 08:08:08;;;;;;;3.70;1.67;;;21.40;69.20;;;;;;9162182;19;20018;-66
2023/09/21 08:11:18;;;;;;;5.85;1.77;;;21.50;69.30;;;;;;9162035;19;20109;-68
2023/09/21 08:14:23;;;;;;;6.90;2.10;;;21.50;69.20;;;;;;9160199;19;20025;-69
2023/09/21 08:17:31;;;;;;;6.57;2.00;;;21.60;69.20;;;;;;9161953;19;20918;-68
2023/09/21 08:20:39;;;;;;;3.83;2.00;;;21.60;69.20;;;;;;9160161;19;20141;-66
2023/09/21 08:23:46;;;;;;;6.93;2.30;;;21.60;69.10;;;;;;9158318;19;20011;-66
2023/09/21 08:26:54;;;;;;;4.47;2.05;;;21.60;69.20;;;;;;9153736;19;20053;-65
2023/09/21 08:30:03;;;;;;;6.55;2.17;;;21.70;69.30;;;;;;9158486;19;20014;-68
2023/09/21 08:33:11;;;;;;;9.10;2.88;;;21.60;69.40;;;;;;9158164;19;20006;-69
2023/09/21 08:36:19;;;;;;;6.45;2.58;;;21.60;69.50;;;;;;9167356;19;20015;-71
2023/09/21 08:39:25;;;;;;;8.05;2.10;;;21.60;69.70;;;;;;9170223;19;20018;-70
2023/09/21 08:42:36;;;;;;;7.47;2.55;;;21.60;69.90;;;;;;9168957;19;20014;-66
2023/09/21 08:45:42;;;;;;;4.53;2.25;;;21.60;70.00;;;;;;9166658;19;20458;-70
2023/09/21 08:48:55;;;;;;;7.95;2.10;;;21.50;70.00;;;;;;9168183;19;20017;-67
2023/09/21 08:52:04;;;;;;;7.72;2.35;;;21.50;70.20;;;;;;9168674;19;20468;-70
2023/09/21 08:55:11;;;;;;;4.88;1.92;;;21.50;70.30;;;;;;9166279;19;20029;-68
2023/09/21 08:58:23;;;;;;;5.20;3.05;;;21.40;70.30;;;;;;9165886;19;20014;-70
2023/09/21 09:01:30;;;;;;;;;;;21.40;70.50;;;;;;9163442;19;20357;-71
2023/09/21 09:04:36;;;;;;;5.35;2.15;;;21.30;70.40;;;;;;9165059;19;19922;-67
2023/09/21 09:07:45;;;;;;;5.53;2.63;;;21.30;70.50;;;;;;9166689;19;20010;-70
2023/09/21 09:10:51;;;;;;;5.32;2.38;;;21.30;70.80;;;;;;9164414;19;20408;-69
2023/09/21 09:14:01;;;;;;;6.20;2.65;;;21.30;70.90;;;;;;9165974;19;20026;-67
2023/09/21 09:17:15;;;;;;;7.18;2.40;;;21.20;71.00;;;;;;9161458;19;20078;-67
2023/09/21 09:20:22;;;;;;;4.72;2.38;;;21.20;71.30;;;;;;9164622;19;20025;-69
2023/09/21 09:23:28;;;;;;;5.15;2.15;;;21.10;71.20;;;;;;9162583;19;20078;-68
2023/09/21 09:26:35;;;;;;;4.82;2.08;;;21.20;71.30;;;;;;9163971;19;20014;-68
2023/09/21 09:29:54;;;;;;;6.93;3.25;;;21.20;71.40;;;;;;9164071;19;20852;-68
2023/09/21 09:33:02;;;;;;;6.40;2.33;;;21.20;71.60;;;;;;9165530;19;20380;-68
2023/09/21 09:36:09;;;;;;;5.18;2.53;;;21.10;71.50;;;;;;9162622;19;20019;-68
2023/09/21 09:39:18;;;;;;;9.63;2.80;;;21.10;71.60;;;;;;9164690;19;20018;-68
2023/09/21 09:42:25;;;;;;;4.63;2.72;;;21.10;71.70;;;;;;9165050;19;20015;-68
2023/09/21 09:45:39;;;;;;;10.70;2.92;;;21.20;71.90;;;;;;9165023;19;20798;-67
2023/09/21 09:48:45;;;;;;;8.25;3.05;;;21.20;72.00;;;;;;9164592;19;20048;-70
2023/09/21 09:51:59;;;;;;;5.80;2.25;;;21.20;72.00;;;;;;9164322;19;20014;-69
2023/09/21 09:55:06;;;;;;;10.60;3.03;;;21.20;72.00;;;;;;9164278;19;20440;-69
2023/09/21 09:58:15;;;;;;;6.32;2.13;;;21.30;72.00;;;;;;9161593;19;20026;-68
2023/09/21 10:01:26;;;;;;;6.90;2.53;;;21.30;71.90;;;;;;9164967;19;20014;-69
2023/09/21 10:04:36;;;;;;;6.77;1.87;;;21.30;71.90;;;;;;9163717;19;20014;-68
2023/09/21 10:07:45;;;;;;;4.53;2.05;;;21.30;71.80;;;;;;9159171;19;20037;-68
2023/09/21 10:10:57;;;;;;;8.82;2.10;;;21.30;71.80;;;;;;9161493;19;20087;-65
2023/09/21 10:14:03;;;;;;;5.53;1.60;;;21.30;71.80;;;;;;9161937;19;20018;-68
2023/09/21 10:17:14;;;;;;;4.57;1.88;;;21.30;71.80;;;;;;9157940;19;20455;-68
2023/09/21 10:20:27;;;;;;;5.97;1.92;;;21.30;71.90;;;;;;9162598;19;20015;-69
2023/09/21 10:23:35;;;;;;;4.15;1.95;;;21.20;71.90;;;;;;9163335;19;20476;-67
2023/09/21 10:26:45;;;;;;;3.03;1.75;;;21.20;72.00;;;;;;9159661;19;20085;-67
2023/09/21 10:29:56;;;;;;;4.30;1.77;;;21.20;72.10;;;;;;9162450;19;20501;-65
2023/09/21 10:33:05;;;;;;;5.95;2.60;;;21.20;72.20;;;;;;9162986;19;20816;-65
2023/09/21 10:36:15;;;;;;;2.83;2.00;;;21.30;72.40;;;;;;9162583;19;20022;-65
2023/09/21 10:39:29;;;;;;;2.80;2.00;;;21.30;72.40;;;;;;9164264;19;20010;-66
2023/09/21 10:42:39;;;;;;;3.45;1.70;;;21.30;72.50;;;;;;9162386;19;20007;-66
2023/09/21 10:45:58;;;;;;;4.55;1.58;;;21.40;72.50;;;;;;9162307;19;20026;-66
2023/09/21 10:49:17;;;;;;;9.20;1.90;;;21.40;72.60;;;;;;9165034;19;20346;-64
2023/09/21 10:52:24;;;;;;;4.60;2.08;;;21.50;72.60;;;;;;9162072;19;20026;-64
2023/09/21 10:55:34;;;;;;;7.38;1.88;;;21.50;72.40;;;;;;9160747;19;20011;-66
2023/09/21 10:58:40;;;;;;;3.63;1.35;;;21.60;72.40;;;;;;9162979;19;20022;-66
2023/09/21 11:01:48;;;;;;;3.15;1.52;;;21.60;72.30;;;;;;9163173;19;20018;-66
2023/09/21 11:04:57;;;;;;;3.90;1.42;;;21.80;72.30;;;;;;9163919;19;20020;-65
2023/09/21 11:08:06;;;;;;;5.03;1.67;;;21.70;72.20;;;;;;9164143;19;20368;-67
2023/09/21 11:11:12;;;;;;;2.00;1.20;;;21.70;72.10;;;;;;9162835;19;20356;-64
2023/09/21 11:14:20;;;;;;;3.90;1.42;;;21.80;72.10;;;;;;9164277;19;20025;-64
2023/09/21 11:17:25;;;;;;;4.93;1.85;;;21.80;72.10;;;;;;9159858;19;20086;-64
2023/09/21 11:20:36;;;;;;;3.80;1.80;;;21.80;72.10;;;;;;9162030;19;20022;-65
2023/09/21 11:23:43;;;;;;;2.88;1.30;;;21.90;72.10;;;;;;9160712;19;20015;-66
2023/09/21 11:26:55;;;;;;;3.92;1.55;;;21.90;72.00;;;;;;9161876;19;20022;-65
2023/09/21 11:30:00;;;;;;;6.65;1.80;;;21.90;72.00;;;;;;9160244;19;20605;-66
2023/09/21 11:33:11;;;;;;;2.47;1.45;;;21.90;71.90;;;;;;9160234;19;20014;-66
2023/09/21 11:36:19;;;;;;;6.45;1.60;;;21.90;72.00;;;;;;9159134;19;20038;-65
2023/09/21 11:39:29;;;;;;;1.50;1.33;;;21.90;72.00;;;;;;9161353;19;20025;-65
2023/09/21 11:42:35;;;;;;;2.13;1.27;;;21.90;71.90;;;;;;9159051;19;20510;-66
2023/09/21 11:45:43;;;;;;;1.80;1.20;;;21.90;71.90;;;;;;9159039;19;20049;-66
2023/09/21 11:48:50;;;;;;;4.88;1.60;;;21.90;71.90;;;;;;9155245;19;20507;-65
2023/09/21 11:52:00;;;;;;;3.30;1.55;;;21.90;72.50;;;;;;9159691;19;20010;-66
2023/09/21 11:55:07;;;;;;;1.88;1.20;;;22.00;71.90;;;;;;9159300;19;20022;-65
2023/09/21 11:58:16;;;;;;;2.80;1.65;;;22.00;71.90;;;;;;9159858;19;20036;-64
2023/09/21 12:01:22;;;;;;;6.15;1.58;;;22.00;71.90;;;;;;9160142;19;20028;-68
2023/09/21 12:04:31;;;;;;;2.58;1.20;;;22.00;72.00;;;;;;9158060;19;20011;-66
2023/09/21 12:07:41;;;;;;;3.83;1.70;;;22.10;72.10;;;;;;9158133;19;20021;-65
2023/09/21 12:10:50;;;;;;;4.22;1.63;;;22.20;72.00;;;;;;9166423;19;20290;-68
2023/09/21 12:13:57;;;;;;;4.25;1.48;;;22.30;71.90;;;;;;9166530;19;20022;-65
2023/09/21 12:17:09;;;;;;;1.75;0.88;;;22.30;71.70;;;;;;9164976;19;20010;-66
2023/09/21 12:20:17;;;;;;;4.85;1.15;;;22.30;71.70;;;;;;9169499;19;20581;-65
2023/09/21 12:23:27;;;;;;;2.42;1.40;;;22.40;71.60;;;;;;9165975;19;20022;-67
2023/09/21 12:26:33;;;;;;;3.95;1.42;;;22.50;71.50;;;;;;9168355;19;20054;-65
2023/09/21 12:29:40;;;;;;;1.95;1.30;;;22.50;71.30;;;;;;9168424;19;20019;-65
2023/09/21 12:32:46;;;;;;;3.40;1.00;;;22.50;71.20;;;;;;9167574;19;20144;-65
2023/09/21 12:35:56;;;;;;;3.50;1.45;;;22.60;71.30;;;;;;9167462;19;20022;-65
2023/09/21 12:39:08;;;;;;;4.88;1.60;;;22.60;71.20;;;;;;9166181;19;20019;-66
2023/09/21 12:42:19;;;;;;;1.58;1.20;;;22.60;71.10;;;;;;9168600;19;20018;-67
2023/09/21 12:45:29;;;;;;;8.73;2.03;;;22.70;71.10;;;;;;9165967;19;20373;-65
2023/09/21 12:48:37;;;;;;;4.10;1.52;;;22.70;71.10;;;;;;9167575;19;20029;-65
2023/09/21 12:51:44;;;;;;;2.45;1.38;;;22.70;71.10;;;;;;9168212;19;20033;-64
2023/09/21 12:54:55;;;;;;;2.72;1.33;;;22.80;71.20;;;;;;9168963;19;20017;-67
2023/09/21 12:58:00;;;;;;;3.90;1.50;;;22.80;71.20;;;;;;9164470;19;20037;-65
2023/09/21 13:01:08;;;;;;;3.92;1.70;;;22.80;71.20;;;;;;9162405;19;20010;-66
2023/09/21 13:04:14;;;;;;;6.57;1.67;;;22.80;71.10;;;;;;9163794;19;20025;-67
2023/09/21 13:07:21;;;;;;;3.42;1.15;;;22.80;71.10;;;;;;9163425;19;20499;-64
2023/09/21 13:10:29;;;;;;;3.22;1.38;;;22.90;71.10;;;;;;9164920;19;20018;-66
2023/09/21 13:13:38;;;;;;;2.13;1.20;;;22.90;71.00;;;;;;9165182;19;20436;-67
2023/09/21 13:16:44;;;;;;;5.70;1.60;;;23.00;71.00;;;;;;9163516;19;20532;-67
2023/09/21 13:19:51;;;;;;;3.80;1.50;;;23.00;70.90;;;;;;9168616;19;20025;-66
2023/09/21 13:22:59;;;;;;;3.33;1.73;;;23.00;71.00;;;;;;9167074;19;20022;-67
2023/09/21 13:26:09;;;;;;;3.70;2.10;;;23.00;70.90;;;;;;9169894;19;20029;-67
2023/09/21 13:29:14;;;;;;;3.05;1.48;;;22.90;70.80;;;;;;9166075;19;20678;-67
2023/09/21 13:32:26;;;;;;;3.80;1.85;;;22.80;70.70;;;;;;9169313;19;20288;-66
2023/09/21 13:35:33;;;;;;;6.63;1.58;;;22.70;70.80;;;;;;9168282;19;20740;-68
2023/09/21 13:38:41;;;;;;;3.10;1.52;;;22.70;71.00;;;;;;9167873;19;20018;-68
2023/09/21 13:41:56;;;;;;;4.03;1.20;;;22.60;71.10;;;;;;9168356;19;20018;-68
2023/09/21 13:45:03;;;;;;;1.63;1.30;;;22.50;71.10;;;;;;9168235;19;20029;-68
2023/09/21 13:48:09;;;;;;;1.40;1.30;;;22.50;71.20;;;;;;9166335;19;20053;-67
2023/09/21 13:51:17;;;;;;;3.15;1.70;;;22.40;71.30;;;;;;9169022;19;20360;-69
2023/09/21 13:54:23;;;;;;;3.38;1.67;;;22.30;71.40;;;;;;9169060;19;20014;-68
2023/09/21 13:57:33;;;;;;;6.43;1.77;;;22.20;71.50;;;;;;9164924;19;20025;-68
2023/09/21 14:00:38;;;;;;;1.48;1.30;;;22.10;71.60;;;;;;9167492;19;20566;-67
2023/09/21 14:03:46;;;;;;;2.30;1.20;;;22.00;71.60;;;;;;9166316;19;20045;-68
2023/09/21 14:06:52;;;;;;;6.63;1.58;;;21.90;71.60;;;;;;9165393;19;20017;-66
2023/09/21 14:09:59;;;;;;;2.80;1.25;;;21.90;71.80;;;;;;9163193;19;20973;-70
2023/09/21 14:13:09;;;;;;;1.88;1.33;;;21.80;71.80;;;;;;9166307;19;20014;-67
2023/09/21 14:16:17;;;;;;;3.65;1.10;;;21.60;71.90;;;;;;9161949;19;20015;-68
2023/09/21 14:19:22;;;;;;;1.63;1.05;;;21.60;71.90;;;;;;9162943;19;20094;-67
2023/09/21 14:22:30;;;;;;;2.78;1.48;;;21.50;72.00;;;;;;9163848;19;20021;-69
2023/09/21 14:25:35;;;;;;;2.78;1.10;;;21.40;72.00;;;;;;9162253;19;20029;-68
2023/09/21 14:28:45;;;;;;;1.58;1.10;;;21.30;72.10;;;;;;9162780;19;20029;-69
2023/09/21 14:31:52;;;;;;;2.53;1.10;;;21.30;72.20;;;;;;9162500;19;20021;-70
2023/09/21 14:34:59;;;;;;;1.73;0.90;;;21.10;72.20;;;;;;9164306;19;20022;-69
2023/09/21 14:38:05;;;;;;;1.98;1.00;;;21.10;72.30;;;;;;9162415;19;20602;-69
2023/09/21 14:41:12;;;;;;;6.13;1.00;;;20.90;72.30;;;;;;9162274;19;20022;-67
2023/09/21 14:44:20;;;;;;;2.42;1.27;;;20.90;72.40;;;;;;9163657;19;20383;-68
2023/09/21 14:47:30;;;;;;;1.75;1.13;;;20.80;72.40;;;;;;9165267;19;20021;-68
2023/09/21 14:50:36;;;;;;;2.47;0.80;;;20.70;72.50;;;;;;9159985;19;20029;-70
2023/09/21 14:53:44;;;;;;;2.40;1.05;;;20.60;72.50;;;;;;9161722;19;20279;-67
2023/09/21 14:56:50;;;;;;;4.20;1.35;;;20.60;72.60;;;;;;9164606;19;20739;-70
2023/09/21 15:00:00;;;;;;;5.55;1.70;;;20.30;72.50;;;;;;9167073;19;20637;-74
2023/09/21 15:03:07;;;;;;;4.93;1.60;;;20.40;72.70;;;;;;9163287;19;20014;-71
2023/09/21 15:06:15;;;;;;;1.60;1.13;;;20.20;72.70;;;;;;9162920;19;20480;-71
2023/09/21 15:09:22;;;;;;;5.10;1.38;;;20.20;72.80;;;;;;9165094;19;20865;-69
2023/09/21 15:12:29;;;;;;;2.72;1.17;;;20.10;72.90;;;;;;9163416;19;20022;-71
2023/09/21 15:15:37;;;;;;;2.42;1.27;;;20.00;73.00;;;;;;9160083;19;20802;-71
2023/09/21 15:18:45;;;;;;;5.55;1.65;;;19.90;73.20;;;;;;9161602;19;20590;-72
2023/09/21 15:21:50;;;;;;;7.78;2.03;;;19.80;73.20;;;;;;9160264;19;20014;-71
2023/09/21 15:24:58;;;;;;;7.18;1.40;;;19.80;73.50;;;;;;9161995;19;20017;-72
2023/09/21 15:28:03;;;;;;;6.32;1.63;;;19.60;73.50;;;;;;9163203;19;20018;-70
2023/09/21 15:31:13;;;;;;;4.05;1.70;;;19.60;73.60;;;;;;9161605;19;20021;-69
2023/09/21 15:34:19;;;;;;;3.95;1.75;;;19.50;73.80;;;;;;9158950;19;20044;-71
2023/09/21 15:37:28;;;;;;;3.45;1.38;;;19.40;73.80;;;;;;9164466;19;20013;-73
2023/09/21 15:40:34;;;;;;;1.92;1.10;;;19.30;73.90;;;;;;9163997;19;20657;-70
2023/09/21 15:43:41;;;;;;;2.13;1.20;;;19.20;74.00;;;;;;9173524;19;20018;-69
2023/09/21 15:46:49;;;;;;;2.60;1.73;;;19.20;74.10;;;;;;9174064;19;20029;-71
2023/09/21 15:49:57;;;;;;;4.40;1.58;;;19.20;74.40;;;;;;9171589;19;20037;-70
2023/09/21 15:53:03;;;;;;;2.55;1.50;;;19.10;74.50;;;;;;9170550;19;20419;-72
2023/09/21 15:56:10;;;;;;;5.88;1.33;;;19.00;74.70;;;;;;9170602;19;20356;-71
2023/09/21 15:59:16;;;;;;;4.20;1.20;;;18.90;74.80;;;;;;9178618;19;20542;-72
2023/09/21 16:02:26;;;;;;;3.15;1.50;;;19.00;75.00;;;;;;9179196;19;20376;-71
2023/09/21 16:05:32;;;;;;;4.07;1.80;;;19.00;75.20;;;;;;9181103;19;20098;-72
2023/09/21 16:08:39;;;;;;;4.65;1.80;;;18.90;75.20;;;;;;9168057;19;20362;-69
2023/09/21 16:11:45;;;;;;;2.38;1.30;;;18.90;75.30;;;;;;9172169;19;20158;-71
2023/09/21 16:14:53;;;;;;;3.92;1.77;;;18.80;75.40;;;;;;9167669;19;20019;-70
2023/09/21 16:18:01;;;;;;;6.80;2.78;;;18.90;75.50;;;;;;9166950;19;20006;-69
2023/09/21 16:21:09;;;;;;;3.90;1.80;;;18.80;75.60;;;;;;9165297;19;20018;-70